createdAt,value
2023-05-24T00:01:19.629Z,69.98
2023-05-24T00:03:50.891Z,70.58
2023-05-24T00:06:21.544Z,70.00
2023-05-24T00:08:50.509Z,70.04
2023-05-24T00:11:19.773Z,69.74
2023-05-24T00:13:49.561Z,69.64
2023-05-24T00:16:18.120Z,69.66
2023-05-24T00:18:46.522Z,69.88
2023-05-24T00:21:16.792Z,69.52
2023-05-24T00:23:45.127Z,69.20
2023-05-24T00:26:13.458Z,68.66
2023-05-24T00:28:41.848Z,68.63
2023-05-24T00:31:10.143Z,68.57
2023-05-24T00:33:38.417Z,68.63
2023-05-24T00:36:06.879Z,68.57
2023-05-24T00:38:35.189Z,68.61
2023-05-24T00:41:04.404Z,68.78
2023-05-24T00:43:32.801Z,69.07
2023-05-24T00:46:34.736Z,69.62
2023-05-24T00:49:05.128Z,69.93
2023-05-24T00:51:36.412Z,70.17
2023-05-24T00:54:04.871Z,70.06
2023-05-24T00:56:35.477Z,70.09
2023-05-24T00:59:04.673Z,69.98
2023-05-24T01:01:33.320Z,69.80
2023-05-24T01:04:04.146Z,69.90
2023-05-24T01:06:47.355Z,69.96
2023-05-24T01:09:36.401Z,69.79
2023-05-24T01:12:32.852Z,69.81
2023-05-24T01:15:43.646Z,69.95
2023-05-24T01:18:38.580Z,70.32
2023-05-24T01:21:12.883Z,70.33
2023-05-24T01:24:13.257Z,70.32
2023-05-24T01:27:15.867Z,69.73
2023-05-24T01:29:44.706Z,68.97
2023-05-24T01:32:13.845Z,68.70
2023-05-24T01:34:42.075Z,69.06
2023-05-24T01:37:10.371Z,68.86
2023-05-24T01:39:41.914Z,69.15
2023-05-24T01:42:26.501Z,69.38
2023-05-24T01:45:15.246Z,69.46
2023-05-24T01:48:13.931Z,69.65
2023-05-24T01:50:52.333Z,69.86
2023-05-24T01:53:24.560Z,69.90
2023-05-24T01:55:59.833Z,69.81
2023-05-24T01:58:30.850Z,69.89
2023-05-24T02:01:00.685Z,69.56
2023-05-24T02:03:29.361Z,69.75
2023-05-24T02:05:57.656Z,69.57
2023-05-24T02:08:25.900Z,69.71
2023-05-24T02:10:54.129Z,69.64
2023-05-24T02:13:22.413Z,70.02
2023-05-24T02:15:50.716Z,69.94
2023-05-24T02:18:19.312Z,69.74
2023-05-24T02:20:47.535Z,69.81
2023-05-24T02:23:15.797Z,69.71
2023-05-24T02:25:44.009Z,70.02
2023-05-24T02:28:12.276Z,70.17
2023-05-24T02:30:40.652Z,70.56
2023-05-24T02:33:09.072Z,70.88
2023-05-24T02:35:37.381Z,71.21
2023-05-24T02:38:05.774Z,70.89
2023-05-24T02:40:33.957Z,70.39
2023-05-24T02:43:02.300Z,70.06
2023-05-24T02:45:30.652Z,70.04
2023-05-24T02:47:58.894Z,70.04
2023-05-24T02:50:27.193Z,69.69
2023-05-24T02:52:55.413Z,69.85
2023-05-24T02:55:23.647Z,69.94
2023-05-24T02:57:51.846Z,70.03
2023-05-24T03:00:20.318Z,69.74
2023-05-24T03:02:48.561Z,69.88
2023-05-24T03:05:17.704Z,70.19
2023-05-24T03:07:45.932Z,70.10
2023-05-24T03:10:15.976Z,69.96
2023-05-24T03:12:44.370Z,70.16
2023-05-24T03:15:12.613Z,70.01
2023-05-24T03:17:40.885Z,69.99
2023-05-24T03:20:09.520Z,69.85
2023-05-24T03:22:37.736Z,69.94
2023-05-24T03:25:06.709Z,70.08
2023-05-24T03:27:36.455Z,70.02
2023-05-24T03:30:05.445Z,69.74
2023-05-24T03:32:33.788Z,70.21
2023-05-24T03:35:02.101Z,70.07
2023-05-24T03:37:30.357Z,70.01
2023-05-24T03:39:58.629Z,70.05
2023-05-24T03:42:26.888Z,69.96
2023-05-24T03:44:55.166Z,69.75
2023-05-24T03:47:23.516Z,69.87
2023-05-24T03:49:51.802Z,69.63
2023-05-24T03:52:20.015Z,69.59
2023-05-24T03:54:48.217Z,69.62
2023-05-24T03:57:17.504Z,69.65
2023-05-24T03:59:45.746Z,69.84
2023-05-24T04:02:13.979Z,69.78
2023-05-24T04:04:42.281Z,69.73
2023-05-24T04:07:10.524Z,69.84
2023-05-24T04:09:38.741Z,69.67
2023-05-24T04:12:07.045Z,69.50
2023-05-24T04:14:35.295Z,69.64
2023-05-24T04:17:03.931Z,69.75
2023-05-24T04:19:32.226Z,70.17
2023-05-24T04:22:00.483Z,70.62
2023-05-24T04:27:01.720Z,70.55
2023-05-24T04:29:28.582Z,70.46
2023-05-24T04:31:55.416Z,70.06
2023-05-24T04:34:24.321Z,69.91
2023-05-24T04:36:51.184Z,69.56
2023-05-24T04:39:18.386Z,69.53
2023-05-24T04:41:46.663Z,69.19
2023-05-24T04:44:13.944Z,69.14
2023-05-24T04:46:40.808Z,69.26
2023-05-24T04:49:09.004Z,69.37
2023-05-24T04:51:35.953Z,69.48
2023-05-24T04:54:05.502Z,69.70
2023-05-24T04:56:32.374Z,69.70
2023-05-24T04:58:59.353Z,69.43
2023-05-24T05:01:26.388Z,68.90
2023-05-24T05:03:53.902Z,69.22
2023-05-24T05:06:20.837Z,69.50
2023-05-24T05:08:47.787Z,69.74
2023-05-24T05:11:14.815Z,70.35
2023-05-24T05:13:41.835Z,71.09
2023-05-24T05:16:08.853Z,71.24
2023-05-24T05:18:35.844Z,71.21
2023-05-24T05:21:04.234Z,71.16
2023-05-24T05:23:31.080Z,71.31
2023-05-24T05:25:57.967Z,71.55
2023-05-24T05:28:24.841Z,71.68
2023-05-24T05:30:51.664Z,71.47
2023-05-24T05:33:18.573Z,71.63
2023-05-24T05:35:45.556Z,71.47
2023-05-24T05:38:12.600Z,71.59
2023-05-24T05:40:39.434Z,71.54
2023-05-24T05:43:06.514Z,71.51
2023-05-24T05:45:33.438Z,71.00
2023-05-24T05:48:00.403Z,70.82
2023-05-24T05:50:27.267Z,70.17
2023-05-24T05:52:54.342Z,69.72
2023-05-24T05:55:21.257Z,68.73
2023-05-24T05:57:48.095Z,67.22
2023-05-24T06:00:15.666Z,66.57
2023-05-24T06:02:42.632Z,66.30
2023-05-24T06:05:10.343Z,66.31
2023-05-24T06:07:37.440Z,66.00
2023-05-24T06:10:04.992Z,65.63
2023-05-24T06:12:32.157Z,64.80
2023-05-24T06:14:59.089Z,63.59
2023-05-24T06:17:26.069Z,62.69
2023-05-24T06:19:53.014Z,62.15
2023-05-24T06:22:19.918Z,61.60
2023-05-24T06:24:46.985Z,61.30
2023-05-24T06:27:14.119Z,60.53
2023-05-24T06:29:40.992Z,59.73
2023-05-24T06:32:07.951Z,59.69
2023-05-24T06:34:34.818Z,59.48
2023-05-24T06:37:01.675Z,59.79
2023-05-24T06:39:29.080Z,60.53
2023-05-24T06:41:55.934Z,60.21
2023-05-24T06:44:24.628Z,59.16
2023-05-24T06:46:52.992Z,58.98
2023-05-24T06:49:19.862Z,58.43
2023-05-24T06:51:49.696Z,59.37
2023-05-24T06:54:16.549Z,59.77
2023-05-24T06:56:43.426Z,59.24
2023-05-24T06:59:10.346Z,57.80
2023-05-24T07:01:38.880Z,57.46
2023-05-24T07:04:06.274Z,57.14
2023-05-24T07:06:33.146Z,57.54
2023-05-24T07:09:00.207Z,56.46
2023-05-24T07:11:28.395Z,56.52
2023-05-24T07:13:57.030Z,55.95
2023-05-24T07:16:23.987Z,56.43
2023-05-24T07:18:50.872Z,56.75
2023-05-24T07:21:18.278Z,57.11
2023-05-24T07:23:46.670Z,56.82
2023-05-24T07:26:13.542Z,56.10
2023-05-24T07:28:40.522Z,56.86
2023-05-24T07:31:11.076Z,56.39
2023-05-24T07:33:38.448Z,56.20
2023-05-24T07:36:06.209Z,55.41
2023-05-24T07:38:34.181Z,55.81
2023-05-24T07:41:02.706Z,54.92
2023-05-24T07:43:29.641Z,54.33
2023-05-24T07:45:58.072Z,54.45
2023-05-24T07:48:24.980Z,54.08
2023-05-24T07:50:51.939Z,53.66
2023-05-24T07:53:18.889Z,53.10
2023-05-24T07:55:46.022Z,52.23
2023-05-24T07:58:12.924Z,51.29
2023-05-24T08:00:39.737Z,51.39
2023-05-24T08:03:06.714Z,49.75
2023-05-24T08:05:36.804Z,48.62
2023-05-24T08:08:05.052Z,47.99
2023-05-24T08:10:31.914Z,47.36
2023-05-24T08:12:58.766Z,47.53
2023-05-24T08:15:25.698Z,47.30
2023-05-24T08:17:52.620Z,46.79
2023-05-24T08:20:19.634Z,47.83
2023-05-24T08:22:46.552Z,47.30
2023-05-24T08:25:13.593Z,47.38
2023-05-24T08:27:40.684Z,46.13
2023-05-24T08:30:09.200Z,46.18
2023-05-24T08:32:36.763Z,46.60
2023-05-24T08:35:19.181Z,46.67
2023-05-24T08:37:47.510Z,46.43
2023-05-24T08:40:14.611Z,46.72
2023-05-24T08:42:41.635Z,45.73
2023-05-24T08:45:14.431Z,45.01
2023-05-24T08:47:41.474Z,44.22
2023-05-24T08:50:09.375Z,44.14
2023-05-24T08:52:38.578Z,44.77
2023-05-24T08:55:06.665Z,43.37
2023-05-24T08:57:35.430Z,41.59
2023-05-24T09:00:02.382Z,41.95
2023-05-24T09:02:31.066Z,40.50
2023-05-24T09:04:59.600Z,38.40
2023-05-24T09:07:33.007Z,38.49
2023-05-24T09:10:07.647Z,37.96
2023-05-24T09:12:43.550Z,35.72
2023-05-24T09:15:11.958Z,34.91
2023-05-24T09:17:38.960Z,34.55
2023-05-24T09:20:07.936Z,34.28
2023-05-24T09:22:41.601Z,34.09
2023-05-24T09:25:13.344Z,34.53
2023-05-24T09:27:40.752Z,34.07
2023-05-24T09:30:10.345Z,33.08
2023-05-24T09:32:38.633Z,31.70
2023-05-24T09:35:09.222Z,30.56
2023-05-24T09:37:37.978Z,29.41
2023-05-24T09:40:06.372Z,29.53
2023-05-24T09:42:34.839Z,31.05
2023-05-24T09:45:07.792Z,31.58
2023-05-24T09:47:38.340Z,30.98
2023-05-24T09:50:16.154Z,29.69
2023-05-24T09:52:43.985Z,29.01
2023-05-24T09:55:20.277Z,27.44
2023-05-24T09:58:01.312Z,24.89
2023-05-24T10:00:32.451Z,25.67
2023-05-24T10:03:04.072Z,26.49
2023-05-24T10:05:30.989Z,27.87
2023-05-24T10:08:00.156Z,26.17
2023-05-24T10:10:33.425Z,24.90
2023-05-24T10:13:02.582Z,23.57
2023-05-24T10:15:30.243Z,23.29
2023-05-24T10:17:58.835Z,24.69
2023-05-24T10:20:25.893Z,24.22
2023-05-24T10:23:09.559Z,24.33
2023-05-24T10:25:45.080Z,26.20
2023-05-24T10:28:17.624Z,28.09
2023-05-24T10:31:14.164Z,29.19
2023-05-24T10:33:45.789Z,28.06
2023-05-24T10:36:15.912Z,26.45
2023-05-24T10:38:46.197Z,24.84
2023-05-24T10:41:13.483Z,23.70
2023-05-24T10:43:56.786Z,22.67
2023-05-24T10:46:33.606Z,21.80
2023-05-24T10:49:00.994Z,21.01
2023-05-24T10:51:39.065Z,21.74
2023-05-24T10:54:25.869Z,23.58
2023-05-24T10:56:52.991Z,24.23
2023-05-24T10:59:38.453Z,23.68
2023-05-24T11:02:10.591Z,25.13
2023-05-24T11:04:41.347Z,26.47
2023-05-24T11:07:13.533Z,27.29
2023-05-24T11:09:42.439Z,27.04
2023-05-24T11:12:09.485Z,25.03
2023-05-24T11:14:39.597Z,22.42
2023-05-24T11:17:08.929Z,21.11
2023-05-24T11:19:44.490Z,21.25
2023-05-24T11:22:14.686Z,22.26
2023-05-24T11:24:44.141Z,23.06
2023-05-24T11:27:13.480Z,23.72
2023-05-24T11:29:43.685Z,25.06
2023-05-24T11:32:17.135Z,24.26
2023-05-24T11:34:49.077Z,25.07
2023-05-24T11:37:18.445Z,26.41
2023-05-24T11:39:51.994Z,27.81
2023-05-24T11:42:21.541Z,28.90
2023-05-24T11:44:52.770Z,29.64
2023-05-24T11:47:20.331Z,30.67
2023-05-24T11:49:51.854Z,30.63
2023-05-24T11:52:20.875Z,30.59
2023-05-24T11:54:49.423Z,31.02
2023-05-24T11:57:22.975Z,31.57
2023-05-24T11:59:49.970Z,31.05
2023-05-24T12:02:18.472Z,32.58
2023-05-24T12:04:45.682Z,32.04
2023-05-24T12:07:12.863Z,30.58
2023-05-24T12:09:40.803Z,29.62
2023-05-24T12:12:08.361Z,30.20
2023-05-24T12:14:35.788Z,28.79
2023-05-24T12:17:02.927Z,26.25
2023-05-24T12:19:33.881Z,25.41
2023-05-24T12:22:07.496Z,26.06
2023-05-24T12:24:37.440Z,26.78
2023-05-24T12:27:05.771Z,25.86
2023-05-24T12:29:40.958Z,23.97
2023-05-24T12:32:12.833Z,22.33
2023-05-24T12:34:43.239Z,21.87
2023-05-24T12:37:12.046Z,21.48
2023-05-24T12:39:39.185Z,20.40
2023-05-24T12:42:06.302Z,19.73
2023-05-24T12:44:39.229Z,19.21
2023-05-24T12:47:08.484Z,18.72
2023-05-24T12:49:36.186Z,18.38
2023-05-24T12:52:04.415Z,18.43
2023-05-24T12:54:31.537Z,17.73
2023-05-24T12:56:58.612Z,17.65
2023-05-24T12:59:26.754Z,17.21
2023-05-24T13:01:53.972Z,16.73
2023-05-24T13:04:23.785Z,16.97
2023-05-24T13:06:50.864Z,16.63
2023-05-24T13:09:17.797Z,16.47
2023-05-24T13:11:44.680Z,16.63
2023-05-24T13:14:11.989Z,16.24
2023-05-24T13:16:38.982Z,16.02
2023-05-24T13:19:06.317Z,15.76
2023-05-24T13:21:33.268Z,16.04
2023-05-24T13:24:00.514Z,16.48
2023-05-24T13:26:27.529Z,16.31
2023-05-24T13:29:26.629Z,16.15
2023-05-24T13:31:41.757Z,16.47
2023-05-24T13:34:08.933Z,16.15
2023-05-24T13:36:36.275Z,16.26
2023-05-24T13:39:14.781Z,16.39
2023-05-24T13:41:44.203Z,16.00
2023-05-24T13:44:14.559Z,16.36
2023-05-24T13:46:43.160Z,16.63
2023-05-24T13:49:12.124Z,16.86
2023-05-24T13:51:40.204Z,17.21
2023-05-24T13:54:07.400Z,17.67
2023-05-24T13:56:36.338Z,17.69
2023-05-24T13:59:05.039Z,17.45
2023-05-24T14:01:34.848Z,17.25
2023-05-24T14:04:04.989Z,17.29
2023-05-24T14:06:33.154Z,18.19
2023-05-24T14:09:00.386Z,18.60
2023-05-24T14:11:27.617Z,18.84
2023-05-24T14:16:24.740Z,20.68
2023-05-24T14:18:52.277Z,22.74
2023-05-24T14:21:20.212Z,23.61
2023-05-24T14:23:47.228Z,24.01
2023-05-24T14:26:14.445Z,24.59
2023-05-24T14:28:41.297Z,24.57
2023-05-24T14:31:08.324Z,24.15
2023-05-24T14:33:35.435Z,23.49
2023-05-24T14:36:02.527Z,23.08
2023-05-24T14:38:29.791Z,22.79
2023-05-24T14:40:56.930Z,22.97
2023-05-24T14:43:26.019Z,23.17
2023-05-24T14:45:52.949Z,23.10
2023-05-24T14:48:19.851Z,22.73
2023-05-24T14:50:46.998Z,22.31
2023-05-24T14:53:14.055Z,22.35
2023-05-24T14:55:43.128Z,22.45
2023-05-24T14:58:12.357Z,22.68
2023-05-24T15:00:41.980Z,22.69
2023-05-24T15:03:10.179Z,22.74
2023-05-24T15:05:37.500Z,22.54
2023-05-24T15:08:04.573Z,24.02
2023-05-24T15:10:31.638Z,25.80
2023-05-24T15:12:58.509Z,27.58
2023-05-24T15:15:25.375Z,28.99
2023-05-24T15:17:52.264Z,29.85
2023-05-24T15:20:19.685Z,30.19
2023-05-24T15:22:47.370Z,29.89
2023-05-24T15:25:14.321Z,30.00
2023-05-24T15:27:41.506Z,30.73
2023-05-24T15:30:08.587Z,32.00
2023-05-24T15:32:35.636Z,33.29
2023-05-24T15:35:02.970Z,34.44
2023-05-24T15:37:30.220Z,35.42
2023-05-24T15:39:57.391Z,36.52
2023-05-24T15:42:24.243Z,37.63
2023-05-24T15:44:51.350Z,38.88
2023-05-24T15:47:21.273Z,40.02
2023-05-24T15:49:50.123Z,40.85
2023-05-24T15:52:17.282Z,41.93
2023-05-24T15:54:44.210Z,42.62
2023-05-24T15:57:11.073Z,43.39
2023-05-24T15:59:39.430Z,43.66
2023-05-24T16:02:08.588Z,43.52
2023-05-24T16:04:35.506Z,43.14
2023-05-24T16:07:02.584Z,43.08
2023-05-24T16:09:29.675Z,43.07
2023-05-24T16:11:56.671Z,43.13
2023-05-24T16:14:23.820Z,43.46
2023-05-24T16:16:50.718Z,44.21
2023-05-24T16:19:18.112Z,44.52
2023-05-24T16:21:45.045Z,44.68
2023-05-24T16:24:11.938Z,44.39
2023-05-24T16:26:39.448Z,42.95
2023-05-24T16:29:06.697Z,41.40
2023-05-24T16:31:33.841Z,40.06
2023-05-24T16:34:01.162Z,39.43
2023-05-24T16:36:28.507Z,39.54
2023-05-24T16:38:55.408Z,39.77
2023-05-24T16:41:22.646Z,40.60
2023-05-24T16:43:49.849Z,41.16
2023-05-24T16:46:17.197Z,42.01
2023-05-24T16:48:44.127Z,42.63
2023-05-24T16:51:11.376Z,43.26
2023-05-24T16:53:38.737Z,43.99
2023-05-24T16:56:05.805Z,44.82
2023-05-24T16:58:33.066Z,45.16
2023-05-24T17:01:00.331Z,45.82
2023-05-24T17:03:27.356Z,46.17
2023-05-24T17:05:56.545Z,46.42
2023-05-24T17:08:24.809Z,47.04
2023-05-24T17:10:52.225Z,47.28
2023-05-24T17:13:19.537Z,47.38
2023-05-24T17:15:46.796Z,47.47
2023-05-24T17:18:14.082Z,47.88
2023-05-24T17:20:41.139Z,47.99
2023-05-24T17:23:09.708Z,47.88
2023-05-24T17:25:37.270Z,47.61
2023-05-24T17:28:04.117Z,47.21
2023-05-24T17:30:31.373Z,46.92
2023-05-24T17:32:59.588Z,46.86
2023-05-24T17:35:27.075Z,46.69
2023-05-24T17:37:54.485Z,46.56
2023-05-24T17:40:21.937Z,46.33
2023-05-24T17:42:49.484Z,45.98
2023-05-24T17:45:17.682Z,46.30
2023-05-24T17:47:44.683Z,46.32
2023-05-24T17:50:12.271Z,46.40
2023-05-24T17:52:39.690Z,46.56
2023-05-24T17:55:08.789Z,46.87
2023-05-24T17:57:36.410Z,47.25
2023-05-24T18:00:07.130Z,47.76
2023-05-24T18:02:34.197Z,47.08
2023-05-24T18:05:01.179Z,45.19
2023-05-24T18:07:28.067Z,45.09
2023-05-24T18:09:55.169Z,45.32
2023-05-24T18:12:22.412Z,45.82
2023-05-24T18:14:49.685Z,45.98
2023-05-24T18:17:17.116Z,46.55
2023-05-24T18:19:44.434Z,47.38
2023-05-24T18:22:11.354Z,47.82
2023-05-24T18:24:40.474Z,48.23
2023-05-24T18:27:08.383Z,48.88
2023-05-24T18:29:35.280Z,49.09
2023-05-24T18:32:02.370Z,49.90
2023-05-24T18:34:32.643Z,49.93
2023-05-24T18:37:01.041Z,49.80
2023-05-24T18:39:28.335Z,49.62
2023-05-24T18:41:57.539Z,50.00
2023-05-24T18:44:26.375Z,50.21
2023-05-24T18:46:56.389Z,50.62
2023-05-24T18:49:23.671Z,50.86
2023-05-24T18:51:50.969Z,51.09
2023-05-24T18:54:17.978Z,51.34
2023-05-24T18:56:45.270Z,51.57
2023-05-24T18:59:12.640Z,51.82
2023-05-24T19:01:40.480Z,51.72
2023-05-24T19:04:07.812Z,51.83
2023-05-24T19:06:36.214Z,51.95
2023-05-24T19:09:03.491Z,52.06
2023-05-24T19:11:31.027Z,52.26
2023-05-24T19:13:57.900Z,52.57
2023-05-24T19:16:28.960Z,52.90
2023-05-24T19:18:59.210Z,53.17
2023-05-24T19:21:27.624Z,53.44
2023-05-24T19:23:54.881Z,53.74
2023-05-24T19:26:22.781Z,53.84
2023-05-24T19:28:50.040Z,54.06
2023-05-24T19:31:24.127Z,54.18
2023-05-24T19:34:00.004Z,54.44
2023-05-24T19:36:29.944Z,54.39
2023-05-24T19:38:59.865Z,54.69
2023-05-24T19:41:27.179Z,54.92
2023-05-24T19:43:56.258Z,55.06
2023-05-24T19:46:28.644Z,54.74
2023-05-24T19:48:56.040Z,54.62
2023-05-24T19:51:23.386Z,54.64
2023-05-24T19:53:50.757Z,54.63
2023-05-24T19:56:17.661Z,54.56
2023-05-24T19:58:44.544Z,54.70
2023-05-24T20:01:11.837Z,54.95
2023-05-24T20:03:41.810Z,55.41
2023-05-24T20:06:08.686Z,55.68
2023-05-24T20:08:36.005Z,56.09
2023-05-24T20:11:03.420Z,56.24
2023-05-24T20:13:33.548Z,56.74
2023-05-24T20:16:00.929Z,56.84
2023-05-24T20:18:27.948Z,57.06
2023-05-24T20:20:54.887Z,57.11
2023-05-24T20:23:25.405Z,57.57
2023-05-24T20:25:56.530Z,57.32
2023-05-24T20:28:30.691Z,57.91
2023-05-24T20:30:59.027Z,58.20
2023-05-24T20:33:26.470Z,58.22
2023-05-24T20:35:53.419Z,58.32
2023-05-24T20:38:22.060Z,58.60
2023-05-24T20:40:49.354Z,59.03
2023-05-24T20:43:16.264Z,59.43
2023-05-24T20:45:45.403Z,60.35
2023-05-24T20:48:13.366Z,60.56
2023-05-24T20:50:40.266Z,60.83
2023-05-24T20:53:07.117Z,60.90
2023-05-24T20:55:33.965Z,61.42
2023-05-24T20:58:01.261Z,61.61
2023-05-24T21:00:28.128Z,61.71
2023-05-24T21:02:55.085Z,61.64
2023-05-24T21:05:22.230Z,61.85
2023-05-24T21:07:49.100Z,62.24
2023-05-24T21:10:19.551Z,62.43
2023-05-24T21:12:48.210Z,62.59
2023-05-24T21:15:15.535Z,62.81
2023-05-24T21:17:42.788Z,62.96
2023-05-24T21:20:10.265Z,63.07
2023-05-24T21:22:37.177Z,63.40
2023-05-24T21:25:05.161Z,63.46
2023-05-24T21:27:32.022Z,63.62
2023-05-24T21:29:59.162Z,63.66
2023-05-24T21:32:26.026Z,63.82
2023-05-24T21:34:52.895Z,63.86
2023-05-24T21:37:19.733Z,64.00
2023-05-24T21:39:46.586Z,64.18
2023-05-24T21:42:13.463Z,64.41
2023-05-24T21:44:40.302Z,64.53
2023-05-24T21:47:07.179Z,64.61
2023-05-24T21:49:34.040Z,65.03
2023-05-24T21:52:00.906Z,65.16
2023-05-24T21:54:27.899Z,65.48
2023-05-24T21:56:54.842Z,65.36
2023-05-24T21:59:21.758Z,65.69
2023-05-24T22:01:48.991Z,65.54
2023-05-24T22:04:16.207Z,66.14
2023-05-24T22:06:43.124Z,65.85
2023-05-24T22:09:12.015Z,65.97
2023-05-24T22:11:39.415Z,66.01
2023-05-24T22:14:06.833Z,66.03
2023-05-24T22:16:33.720Z,66.30
2023-05-24T22:19:00.640Z,66.05
2023-05-24T22:21:27.637Z,66.17
2023-05-24T22:23:54.490Z,66.10
2023-05-24T22:26:21.713Z,66.49
2023-05-24T22:28:56.321Z,66.47
2023-05-24T22:31:24.415Z,66.56
2023-05-24T22:33:52.638Z,67.08
2023-05-24T22:36:19.539Z,67.47
2023-05-24T22:38:46.431Z,67.99
2023-05-24T22:41:13.300Z,67.87
2023-05-24T22:43:40.160Z,67.99
2023-05-24T22:46:09.225Z,68.06
2023-05-24T22:48:37.560Z,68.10
2023-05-24T22:51:04.664Z,68.15
2023-05-24T22:53:31.643Z,67.92
2023-05-24T22:55:58.462Z,68.09
2023-05-24T22:58:25.316Z,67.99
2023-05-24T23:00:52.337Z,68.23
2023-05-24T23:03:19.179Z,68.13
2023-05-24T23:05:46.072Z,68.28
2023-05-24T23:08:13.123Z,68.46
2023-05-24T23:10:40.212Z,68.40
2023-05-24T23:13:07.038Z,68.45
2023-05-24T23:15:34.172Z,68.61
2023-05-24T23:18:01.030Z,68.88
2023-05-24T23:20:28.095Z,68.91
2023-05-24T23:22:54.971Z,68.88
2023-05-24T23:25:21.866Z,68.98
2023-05-24T23:27:48.758Z,69.08
2023-05-24T23:30:15.827Z,69.03
2023-05-24T23:32:44.326Z,69.03
2023-05-24T23:35:11.181Z,69.08
2023-05-24T23:37:38.053Z,68.98
2023-05-24T23:40:07.210Z,69.14
2023-05-24T23:42:34.199Z,69.63
2023-05-24T23:45:03.800Z,69.76
2023-05-24T23:47:30.692Z,69.77
2023-05-24T23:49:57.541Z,69.91
2023-05-24T23:52:24.374Z,69.84
2023-05-24T23:54:51.255Z,69.92
2023-05-24T23:57:19.021Z,69.84
2023-05-24T23:59:46.437Z,69.60
